Verhneimbatsk, Russia
Current Conditions -  °F | °C
As of 1:00 PM on Friday 31 Oct 2014 (Local Time) from USNN Reporting Station
Overcast Overcast  
Wind Chill: 30°   Ceiling: 2300
Heat Index: 36°   Visibility: 6mi
Dew Point: 34°   Wind: 7mph
Humidity: 93%   Direction: 230°SW
Pressure: 29.85"   Gusts: NA
Location:  63.15°N, 87.95°E
Report Text: USNN 310600Z 23003MPS 9999 SCT012 OVC023 02/01 Q1011 NOSIG RMKQFE753 2139//34
Loading
Personal Weather Stations






























Interactive Weather Map
Tropical Storm Tracking
New forecast layout! Learn more

10-Day Weather Forecast

Advertisements
Track Severe Weather on mobile